createdAt,value
2022-12-22T00:00:13.150Z,34.90
2022-12-22T00:02:59.540Z,34.60
2022-12-22T00:05:48.320Z,32.33
2022-12-22T00:08:34.345Z,33.23
2022-12-22T00:11:20.433Z,37.03
2022-12-22T00:14:06.420Z,37.13
2022-12-22T00:16:56.858Z,33.63
2022-12-22T00:19:44.643Z,35.70
2022-12-22T00:22:37.675Z,34.97
2022-12-22T00:25:26.203Z,36.80
2022-12-22T00:28:13.501Z,37.27
2022-12-22T00:31:00.076Z,33.30
2022-12-22T00:33:49.085Z,36.07
2022-12-22T00:36:35.404Z,44.63
2022-12-22T00:39:21.061Z,40.40
2022-12-22T00:42:06.829Z,40.17
2022-12-22T00:44:52.460Z,38.80
2022-12-22T00:47:43.807Z,40.60
2022-12-22T00:50:31.323Z,38.87
2022-12-22T00:53:19.898Z,40.40
2022-12-22T00:56:08.643Z,35.13
2022-12-22T00:58:54.917Z,39.47
2022-12-22T01:01:40.356Z,36.57
2022-12-22T01:04:28.471Z,41.23
2022-12-22T01:07:16.073Z,39.13
2022-12-22T01:10:24.198Z,34.80
2022-12-22T01:13:10.544Z,35.10
2022-12-22T01:15:56.713Z,46.47
2022-12-22T01:19:02.435Z,37.33
2022-12-22T01:21:48.496Z,32.90
2022-12-22T01:24:37.316Z,38.90
2022-12-22T01:27:23.250Z,35.93
2022-12-22T01:30:09.125Z,39.97
2022-12-22T01:32:55.718Z,35.27
2022-12-22T01:35:44.993Z,36.50
2022-12-22T01:38:30.984Z,38.57
2022-12-22T01:41:18.973Z,38.60
2022-12-22T01:44:06.659Z,40.10
2022-12-22T01:47:32.603Z,37.60
2022-12-22T01:50:22.701Z,42.57
2022-12-22T01:53:38.633Z,41.77
2022-12-22T01:56:27.608Z,39.30
2022-12-22T01:59:16.156Z,32.73
2022-12-22T02:02:03.007Z,43.23
2022-12-22T02:04:52.877Z,38.60
2022-12-22T02:08:07.921Z,33.10
2022-12-22T02:11:21.648Z,43.87
2022-12-22T02:14:26.173Z,37.30
2022-12-22T02:17:20.762Z,47.20
2022-12-22T02:20:28.527Z,36.07
2022-12-22T02:23:26.147Z,38.93
2022-12-22T02:26:17.578Z,35.13
2022-12-22T02:29:08.063Z,38.20
2022-12-22T02:31:55.901Z,38.63
2022-12-22T02:34:43.334Z,40.47
2022-12-22T02:37:41.059Z,37.63
2022-12-22T02:40:41.190Z,38.33
2022-12-22T02:43:36.248Z,38.07
2022-12-22T02:46:30.926Z,36.70
2022-12-22T02:49:43.691Z,40.83
2022-12-22T02:52:32.643Z,39.50
2022-12-22T02:55:18.382Z,38.80
2022-12-22T02:58:05.894Z,38.97
2022-12-22T03:00:52.047Z,41.40
2022-12-22T03:03:40.189Z,42.23
2022-12-22T03:06:26.545Z,40.57
2022-12-22T03:09:32.461Z,38.80
2022-12-22T03:12:23.612Z,35.13
2022-12-22T03:15:09.033Z,38.40
2022-12-22T03:17:54.723Z,39.30
2022-12-22T03:20:44.621Z,36.50
2022-12-22T03:23:31.820Z,34.97
2022-12-22T03:26:02.330Z,34.90
2022-12-22T03:28:51.533Z,37.43
2022-12-22T03:31:19.620Z,33.60
2022-12-22T03:33:50.056Z,36.07
2022-12-22T03:36:23.904Z,32.60
2022-12-22T03:38:52.187Z,32.30
2022-12-22T03:41:50.543Z,33.90
2022-12-22T03:44:33.013Z,37.30
2022-12-22T03:47:01.470Z,33.07
2022-12-22T03:49:30.176Z,34.10
2022-12-22T03:52:00.133Z,35.40
2022-12-22T03:54:33.859Z,37.43
2022-12-22T03:57:07.821Z,32.80
2022-12-22T04:05:34.522Z,37.07
2022-12-22T04:08:19.950Z,35.13
2022-12-22T04:11:05.549Z,37.83
2022-12-22T04:13:33.605Z,27.10
2022-12-22T04:16:03.426Z,29.03
2022-12-22T04:18:31.519Z,31.97
2022-12-22T04:21:00.112Z,31.73
2022-12-22T04:23:30.493Z,33.83
2022-12-22T04:26:01.143Z,34.40
2022-12-22T04:28:29.186Z,43.47
2022-12-22T04:31:21.655Z,39.30
2022-12-22T04:33:50.647Z,49.70
2022-12-22T04:36:24.566Z,47.10
2022-12-22T04:38:54.436Z,48.23
2022-12-22T04:41:22.474Z,52.07
2022-12-22T04:43:50.728Z,50.90
2022-12-22T04:46:40.328Z,52.03
2022-12-22T04:49:11.508Z,81.93
2022-12-22T04:51:39.736Z,68.07
2022-12-22T04:54:10.168Z,51.43
2022-12-22T04:56:42.307Z,29.63
2022-12-22T04:59:10.614Z,39.40
2022-12-22T05:02:01.393Z,40.83
2022-12-22T05:04:30.594Z,30.60
2022-12-22T05:06:58.613Z,33.17
2022-12-22T05:09:32.121Z,34.20
2022-12-22T05:12:00.516Z,34.50
2022-12-22T05:14:28.498Z,28.50
2022-12-22T05:16:58.914Z,45.43
2022-12-22T05:19:30.718Z,43.93
2022-12-22T05:21:59.432Z,36.97
2022-12-22T05:24:30.497Z,41.30
2022-12-22T05:26:58.873Z,36.57
2022-12-22T05:29:31.473Z,29.03
2022-12-22T05:31:59.572Z,25.90
2022-12-22T05:34:28.490Z,25.70
2022-12-22T05:36:56.989Z,26.53
2022-12-22T05:39:25.054Z,30.77
2022-12-22T05:41:54.316Z,30.07
2022-12-22T05:44:22.520Z,26.80
2022-12-22T05:46:52.190Z,46.07
2022-12-22T05:49:20.359Z,40.53
2022-12-22T05:51:48.725Z,33.23
2022-12-22T05:54:17.323Z,16.90
2022-12-22T05:56:45.283Z,28.10
2022-12-22T05:59:14.715Z,22.60
2022-12-22T06:01:43.086Z,37.67
2022-12-22T06:04:11.269Z,22.63
2022-12-22T06:06:39.363Z,23.03
2022-12-22T06:09:07.351Z,35.73
2022-12-22T06:11:35.365Z,37.23
2022-12-22T06:14:03.332Z,38.30
2022-12-22T06:16:32.777Z,21.23
2022-12-22T06:19:01.032Z,29.70
2022-12-22T06:21:29.420Z,30.93
2022-12-22T06:23:58.151Z,45.10
2022-12-22T06:26:26.138Z,43.23
2022-12-22T06:28:54.116Z,33.83
2022-12-22T06:31:22.175Z,38.33
2022-12-22T06:33:51.600Z,41.43
2022-12-22T06:36:19.636Z,20.73
2022-12-22T06:38:47.854Z,12.30
2022-12-22T06:41:35.990Z,14.87
2022-12-22T06:44:03.048Z,18.03
2022-12-22T06:46:31.104Z,12.47
2022-12-22T06:49:01.076Z,14.47
2022-12-22T06:51:29.329Z,16.27
2022-12-22T06:53:57.352Z,13.03
2022-12-22T06:56:25.327Z,14.03
2022-12-22T06:58:53.616Z,15.00
2022-12-22T07:01:21.634Z,16.67
2022-12-22T07:03:49.812Z,15.00
2022-12-22T07:06:19.649Z,11.63
2022-12-22T07:08:48.806Z,12.53
2022-12-22T07:11:17.170Z,13.47
2022-12-22T07:13:45.996Z,10.80
2022-12-22T07:16:14.279Z,9.93
2022-12-22T07:18:43.776Z,10.73
2022-12-22T07:21:14.000Z,11.47
2022-12-22T07:23:43.597Z,9.70
2022-12-22T07:26:11.809Z,9.93
2022-12-22T07:28:41.664Z,9.53
2022-12-22T07:31:10.335Z,10.13
2022-12-22T07:33:38.719Z,11.10
2022-12-22T07:36:09.623Z,15.60
2022-12-22T07:38:40.629Z,15.03
2022-12-22T07:41:25.654Z,19.70
2022-12-22T07:43:54.281Z,15.77
2022-12-22T07:46:22.743Z,18.77
2022-12-22T07:49:08.487Z,15.60
2022-12-22T07:51:38.539Z,16.77
2022-12-22T07:54:08.153Z,15.03
2022-12-22T07:56:38.209Z,17.30
2022-12-22T07:59:06.231Z,12.80
2022-12-22T08:01:34.520Z,17.83
2022-12-22T08:04:02.788Z,14.23
2022-12-22T08:06:30.885Z,15.17
2022-12-22T08:08:58.899Z,9.33
2022-12-22T08:11:27.717Z,11.47
2022-12-22T08:14:01.351Z,6.67
2022-12-22T08:16:30.721Z,7.90
2022-12-22T08:18:58.869Z,10.40
2022-12-22T08:21:26.878Z,10.20
2022-12-22T08:23:55.092Z,9.87
2022-12-22T08:26:26.090Z,19.77
2022-12-22T08:29:00.729Z,13.27
2022-12-22T08:31:30.336Z,12.70
2022-12-22T08:34:00.365Z,8.83
2022-12-22T08:36:28.613Z,12.87
2022-12-22T08:38:57.512Z,13.53
2022-12-22T08:41:39.613Z,9.97
2022-12-22T08:44:09.420Z,9.50
2022-12-22T08:46:37.457Z,8.27
2022-12-22T08:49:05.516Z,7.30
2022-12-22T08:51:33.742Z,7.27
2022-12-22T08:54:04.841Z,9.53
2022-12-22T08:56:33.220Z,8.53
2022-12-22T08:59:05.137Z,8.67
2022-12-22T09:01:35.979Z,9.00
2022-12-22T09:04:04.699Z,10.30
2022-12-22T09:06:38.586Z,10.33
2022-12-22T09:09:11.212Z,11.90
2022-12-22T09:11:40.389Z,8.27
2022-12-22T09:14:10.060Z,10.53
2022-12-22T09:16:40.014Z,16.47
2022-12-22T09:19:08.964Z,11.00
2022-12-22T09:21:38.062Z,11.97
2022-12-22T09:24:07.788Z,15.73
2022-12-22T09:26:36.547Z,8.47
2022-12-22T09:29:05.583Z,15.13
2022-12-22T09:31:34.328Z,7.87
2022-12-22T09:34:09.569Z,9.87
2022-12-22T09:36:45.973Z,13.83
2022-12-22T09:39:15.946Z,11.87
2022-12-22T09:41:47.844Z,10.03
2022-12-22T09:44:22.616Z,9.30
2022-12-22T09:46:54.228Z,9.47
2022-12-22T09:49:25.484Z,10.67
2022-12-22T09:51:57.184Z,12.10
2022-12-22T09:54:27.517Z,7.50
2022-12-22T09:56:55.675Z,9.40
2022-12-22T09:59:27.442Z,10.60
2022-12-22T10:02:11.753Z,6.90
2022-12-22T10:04:55.332Z,9.37
2022-12-22T10:07:31.300Z,11.63
2022-12-22T10:10:00.010Z,10.37
2022-12-22T10:12:28.241Z,13.90
2022-12-22T10:14:57.424Z,7.47
2022-12-22T10:17:29.260Z,11.53
2022-12-22T10:20:10.953Z,13.37
2022-12-22T10:22:49.193Z,7.30
2022-12-22T10:25:59.981Z,10.10
2022-12-22T10:28:25.757Z,12.97
2022-12-22T10:31:16.153Z,12.83
2022-12-22T10:33:47.559Z,11.17
2022-12-22T10:36:22.344Z,8.27
2022-12-22T10:39:01.490Z,10.23
2022-12-22T10:41:32.681Z,13.40
2022-12-22T10:44:03.899Z,11.03
2022-12-22T10:46:38.424Z,15.03
2022-12-22T10:49:20.273Z,13.63
2022-12-22T10:52:04.427Z,15.23
2022-12-22T10:54:36.054Z,17.67
2022-12-22T10:57:25.924Z,16.90
2022-12-22T10:59:55.860Z,20.57
2022-12-22T11:02:30.249Z,23.20
2022-12-22T11:05:05.252Z,18.63
2022-12-22T11:07:37.181Z,22.73
2022-12-22T11:10:18.698Z,20.60
2022-12-22T11:13:21.091Z,16.97
2022-12-22T11:15:55.271Z,21.07
2022-12-22T11:18:39.661Z,21.50
2022-12-22T11:21:20.274Z,21.87
2022-12-22T11:24:02.092Z,27.13
2022-12-22T11:26:41.270Z,25.73
2022-12-22T11:29:32.926Z,22.33
2022-12-22T11:32:18.837Z,25.57
2022-12-22T11:34:57.646Z,22.60
2022-12-22T11:37:36.644Z,30.00
2022-12-22T11:40:15.016Z,22.47
2022-12-22T11:42:58.546Z,20.63
2022-12-22T11:45:48.310Z,20.47
2022-12-22T11:48:42.660Z,19.33
2022-12-22T11:51:26.997Z,20.07
2022-12-22T11:54:17.250Z,20.83
2022-12-22T11:56:53.259Z,17.77
2022-12-22T11:59:39.371Z,18.47
2022-12-22T12:02:29.826Z,24.00
2022-12-22T12:05:24.108Z,26.67
2022-12-22T12:07:56.021Z,27.17
2022-12-22T12:10:28.093Z,28.23
2022-12-22T12:13:07.873Z,28.83
2022-12-22T12:15:41.852Z,26.40
2022-12-22T12:18:27.450Z,32.20
2022-12-22T12:21:03.948Z,34.20
2022-12-22T12:23:58.612Z,26.47
2022-12-22T12:26:31.974Z,32.03
2022-12-22T12:29:14.640Z,32.77
2022-12-22T12:31:48.350Z,34.70
2022-12-22T12:34:18.452Z,32.23
2022-12-22T12:36:51.650Z,28.73
2022-12-22T12:39:25.298Z,27.67
2022-12-22T12:42:06.629Z,31.53
2022-12-22T12:44:37.888Z,32.50
2022-12-22T12:47:10.134Z,34.03
2022-12-22T12:50:03.133Z,33.93
2022-12-22T12:53:13.787Z,38.13
2022-12-22T12:56:02.741Z,31.13
2022-12-22T12:58:55.602Z,30.87
2022-12-22T13:01:54.607Z,31.70
2022-12-22T13:15:15.504Z,39.30
2022-12-22T13:20:38.670Z,31.53
2022-12-22T13:23:16.058Z,30.37
2022-12-22T13:25:50.277Z,35.50
2022-12-22T13:28:20.817Z,32.60
2022-12-22T13:30:51.607Z,29.30
2022-12-22T13:33:25.282Z,29.93
2022-12-22T13:35:58.823Z,29.77
2022-12-22T13:38:34.352Z,30.77
2022-12-22T13:41:06.280Z,28.43
2022-12-22T13:43:34.965Z,32.57
2022-12-22T13:46:04.335Z,31.73
2022-12-22T13:48:44.273Z,29.10
2022-12-22T13:51:18.605Z,27.93
2022-12-22T13:54:08.580Z,28.27
2022-12-22T13:56:41.942Z,27.67
2022-12-22T13:59:23.145Z,29.57
2022-12-22T14:01:52.333Z,27.33
2022-12-22T14:04:20.597Z,27.27
2022-12-22T14:06:48.895Z,24.23
2022-12-22T14:09:22.366Z,26.63
2022-12-22T14:11:53.646Z,23.43
2022-12-22T14:14:27.451Z,29.87
2022-12-22T14:16:58.180Z,30.33
2022-12-22T14:19:27.690Z,28.67
2022-12-22T14:22:05.962Z,28.73
2022-12-22T14:24:43.391Z,26.73
2022-12-22T14:27:19.882Z,25.43
2022-12-22T14:29:48.363Z,28.03
2022-12-22T14:32:38.916Z,23.23
2022-12-22T14:35:27.141Z,24.47
2022-12-22T14:37:57.277Z,24.93
2022-12-22T14:40:35.229Z,26.00
2022-12-22T14:43:06.461Z,24.10
2022-12-22T14:45:35.132Z,20.47
2022-12-22T14:48:03.561Z,21.93
2022-12-22T14:51:06.405Z,22.70
2022-12-22T14:53:44.704Z,26.17
2022-12-22T14:56:17.824Z,20.00
2022-12-22T14:58:47.938Z,20.93
2022-12-22T15:01:20.286Z,23.77
2022-12-22T15:04:04.515Z,24.77
2022-12-22T15:06:39.349Z,25.90
2022-12-22T15:12:19.102Z,26.00
2022-12-22T15:14:49.090Z,23.40
2022-12-22T15:17:22.385Z,25.67
2022-12-22T15:19:52.151Z,26.23
2022-12-22T15:22:20.678Z,25.43
2022-12-22T15:24:48.796Z,20.90
2022-12-22T15:27:18.548Z,23.60
2022-12-22T15:29:46.866Z,22.97
2022-12-22T15:32:15.913Z,22.73
2022-12-22T15:34:44.823Z,20.03
2022-12-22T15:37:13.812Z,18.40
2022-12-22T15:39:41.939Z,18.97
2022-12-22T15:42:10.344Z,17.87
2022-12-22T15:44:39.922Z,18.93
2022-12-22T15:47:11.169Z,18.17
2022-12-22T15:49:39.843Z,19.90
2022-12-22T15:52:11.117Z,16.27
2022-12-22T15:54:39.659Z,19.87
2022-12-22T15:57:12.673Z,17.77
2022-12-22T15:59:44.512Z,17.47
2022-12-22T16:02:14.752Z,15.47
2022-12-22T16:04:43.389Z,18.37
2022-12-22T16:07:14.879Z,17.90
2022-12-22T16:09:46.304Z,19.60
2022-12-22T16:12:16.351Z,17.50
2022-12-22T16:14:50.868Z,20.87
2022-12-22T16:17:25.388Z,19.70
2022-12-22T16:19:54.166Z,17.30
2022-12-22T16:22:28.504Z,18.60
2022-12-22T16:24:57.499Z,20.13
2022-12-22T16:27:27.128Z,20.50
2022-12-22T16:29:57.133Z,22.97
2022-12-22T16:32:27.474Z,19.50
2022-12-22T16:35:16.151Z,20.90
2022-12-22T16:37:45.359Z,20.57
2022-12-22T16:40:17.094Z,20.27
2022-12-22T16:45:40.161Z,18.97
2022-12-22T16:48:14.084Z,16.10
2022-12-22T16:50:46.868Z,15.80
2022-12-22T16:53:15.805Z,18.13
2022-12-22T16:55:44.991Z,14.40
2022-12-22T16:58:14.422Z,15.27
2022-12-22T17:00:45.988Z,13.77
2022-12-22T17:03:20.154Z,13.37
2022-12-22T17:05:51.508Z,14.50
2022-12-22T17:08:24.364Z,12.93
2022-12-22T17:10:55.049Z,14.13
2022-12-22T17:13:24.112Z,15.67
2022-12-22T17:15:54.109Z,15.97
2022-12-22T17:18:25.525Z,16.23
2022-12-22T17:20:57.125Z,18.17
2022-12-22T17:23:32.463Z,17.47
2022-12-22T17:26:03.366Z,17.80
2022-12-22T17:28:31.887Z,17.30
2022-12-22T17:31:02.120Z,55.20
2022-12-22T17:33:37.604Z,19.50
2022-12-22T17:36:06.866Z,19.53
2022-12-22T17:38:36.577Z,16.87
2022-12-22T17:41:16.883Z,18.40
2022-12-22T17:43:46.872Z,18.57
2022-12-22T17:46:19.188Z,18.63
2022-12-22T17:49:31.299Z,17.67
2022-12-22T17:52:00.512Z,19.03
2022-12-22T17:54:34.519Z,19.37
2022-12-22T17:57:27.064Z,19.87
2022-12-22T17:59:55.715Z,20.87
2022-12-22T18:02:36.553Z,22.07
2022-12-22T18:05:07.314Z,19.67
2022-12-22T18:07:55.913Z,20.00
2022-12-22T18:10:27.889Z,20.63
2022-12-22T18:12:59.095Z,20.33
2022-12-22T18:16:15.466Z,17.33
2022-12-22T18:18:47.105Z,19.00
2022-12-22T18:21:26.140Z,22.37
2022-12-22T18:23:56.051Z,16.30
2022-12-22T18:26:28.933Z,16.33
2022-12-22T18:29:06.200Z,18.60
2022-12-22T18:31:34.966Z,18.87
2022-12-22T18:35:15.628Z,23.57
2022-12-22T18:37:47.938Z,16.30
2022-12-22T18:40:40.254Z,22.50
2022-12-22T18:43:15.813Z,21.73
2022-12-22T18:46:05.229Z,20.40
2022-12-22T18:48:34.086Z,26.90
2022-12-22T18:51:03.160Z,23.17
2022-12-22T18:53:36.175Z,24.47
2022-12-22T18:56:08.745Z,19.83
2022-12-22T18:58:39.044Z,20.53
2022-12-22T19:01:18.737Z,18.77
2022-12-22T19:03:48.456Z,19.53
2022-12-22T19:06:22.663Z,13.37
2022-12-22T19:08:56.804Z,15.60
2022-12-22T19:11:29.301Z,13.10
2022-12-22T19:13:59.892Z,11.77
2022-12-22T19:16:29.613Z,9.90
2022-12-22T19:19:04.782Z,12.37
2022-12-22T19:21:38.682Z,10.00
2022-12-22T19:24:11.219Z,8.40
2022-12-22T19:26:48.466Z,10.23
2022-12-22T19:29:18.985Z,12.50
2022-12-22T19:32:07.999Z,7.00
2022-12-22T19:34:59.069Z,7.80
2022-12-22T19:37:28.346Z,10.10
2022-12-22T19:40:03.688Z,6.40
2022-12-22T19:42:36.208Z,8.87
2022-12-22T19:45:21.225Z,7.23
2022-12-22T19:47:53.633Z,6.70
2022-12-22T19:50:26.723Z,7.87
2022-12-22T19:52:56.563Z,8.27
2022-12-22T19:55:30.569Z,7.93
2022-12-22T19:57:59.628Z,9.67
2022-12-22T20:00:30.024Z,9.93
2022-12-22T20:03:01.223Z,8.90
2022-12-22T20:05:33.033Z,9.33
2022-12-22T20:08:18.117Z,7.67
2022-12-22T20:10:54.458Z,7.60
2022-12-22T20:13:28.455Z,4.57
2022-12-22T20:15:57.317Z,4.10
2022-12-22T20:18:30.690Z,6.07
2022-12-22T20:21:04.020Z,7.53
2022-12-22T20:23:36.524Z,5.90
2022-12-22T20:26:08.371Z,8.43
2022-12-22T20:28:56.602Z,11.27
2022-12-22T20:31:26.135Z,14.50
2022-12-22T20:33:57.776Z,20.63
2022-12-22T20:37:22.938Z,17.77
2022-12-22T20:39:52.368Z,21.53
2022-12-22T20:42:24.681Z,21.63
2022-12-22T20:45:02.015Z,22.97
2022-12-22T20:47:33.722Z,22.63
2022-12-22T20:50:02.390Z,28.27
2022-12-22T20:52:30.786Z,23.33
2022-12-22T20:55:02.463Z,32.27
2022-12-22T20:57:32.891Z,23.80
2022-12-22T21:00:03.006Z,31.20
2022-12-22T21:02:32.259Z,21.03
2022-12-22T21:05:02.666Z,27.10
2022-12-22T21:07:31.158Z,22.07
2022-12-22T21:09:59.543Z,17.80
2022-12-22T21:12:27.973Z,23.37
2022-12-22T21:14:58.024Z,20.93
2022-12-22T21:17:28.577Z,22.33
2022-12-22T21:19:56.892Z,23.00
2022-12-22T21:22:25.221Z,20.00
2022-12-22T21:24:53.596Z,22.23
2022-12-22T21:27:22.618Z,32.63
2022-12-22T21:29:50.867Z,26.50
2022-12-22T21:32:20.476Z,28.83
2022-12-22T21:34:48.939Z,19.63
2022-12-22T21:37:20.083Z,27.70
2022-12-22T21:39:48.919Z,24.83
2022-12-22T21:42:18.163Z,26.20
2022-12-22T21:44:47.015Z,12.97
2022-12-22T21:47:18.345Z,20.40
2022-12-22T21:49:48.235Z,19.80
2022-12-22T21:52:16.565Z,18.47
2022-12-22T21:54:44.825Z,23.20
2022-12-22T21:57:16.798Z,25.13
2022-12-22T21:59:45.073Z,24.67
2022-12-22T22:02:17.062Z,19.87
2022-12-22T22:04:52.041Z,28.33
2022-12-22T22:07:24.601Z,26.93
2022-12-22T22:09:53.381Z,24.23
2022-12-22T22:12:38.308Z,29.93
2022-12-22T22:15:08.302Z,30.93
2022-12-22T22:17:36.747Z,23.37
2022-12-22T22:20:05.867Z,24.67
2022-12-22T22:22:35.582Z,20.63
2022-12-22T22:25:03.736Z,25.57
2022-12-22T22:27:31.764Z,23.20
2022-12-22T22:30:00.166Z,30.27
2022-12-22T22:32:28.624Z,27.47
2022-12-22T22:34:56.880Z,26.43
2022-12-22T22:37:25.880Z,28.67
2022-12-22T22:39:56.417Z,23.40
2022-12-22T22:42:25.092Z,24.97
2022-12-22T22:44:53.802Z,25.67
2022-12-22T22:47:22.193Z,27.00
2022-12-22T22:49:54.306Z,21.77
2022-12-22T22:52:22.941Z,25.63
2022-12-22T22:54:52.164Z,20.23
2022-12-22T22:57:23.612Z,26.07
2022-12-22T22:59:52.281Z,23.60
2022-12-22T23:02:22.069Z,20.20
2022-12-22T23:04:50.790Z,19.07
2022-12-22T23:07:19.433Z,19.67
2022-12-22T23:09:48.356Z,23.90
2022-12-22T23:12:17.224Z,26.93
2022-12-22T23:14:47.456Z,29.87
2022-12-22T23:17:15.652Z,21.93
2022-12-22T23:19:44.389Z,25.73
2022-12-22T23:22:12.888Z,22.63
2022-12-22T23:24:41.105Z,22.53
2022-12-22T23:27:09.462Z,24.83
2022-12-22T23:29:38.615Z,29.00
2022-12-22T23:32:08.309Z,30.73
2022-12-22T23:34:36.506Z,27.37
2022-12-22T23:37:04.933Z,26.07
2022-12-22T23:39:35.166Z,38.93
2022-12-22T23:49:28.822Z,41.00
2022-12-22T23:51:56.906Z,41.27
2022-12-22T23:54:25.082Z,37.73
2022-12-22T23:56:53.146Z,35.30
2022-12-22T23:59:21.490Z,37.53
